Ludington, MI

01:42 AM EDT del 27 Luglio 2016 (GMT -0400)
Mason County | | Change Station

Alt. 646 ft 43.96 °N, 86.41 °W | Updated 7 minutes ago

Clear
Sereno
72 °F
Sembra 72 °F
N
5
Vento Variabile Vento da OSO

Oggi
Massima -- | Minima -- °F
--% Possibilità di precip.
Ieri
Massima -- | Minima -- °F
Precip. -- in
Pressione 29.97 in
Visibilità 10.0 miglia
Nuvole Sereno
Punto di rugiada 68 °F
Umidità 86%
Piovosità 0.00 in
Spessore del manto nevoso Non disponibile.
6:29 AM 9:14 PM
Gobba a levante, 47% visible
METAR KLDM 270535Z AUTO 24004KT 10SM CLR 22/20 A2997 RMK AO2 T02220197
Pressione 29.97 in
Visibilità 10.0 miglia
Nuvole Sereno
Punto di rugiada 68 °F
Umidità 86%
Piovosità 0.00 in
Spessore del manto nevoso Non disponibile.
6:29 AM 9:14 PM
Gobba a levante, 47% visible
METAR KLDM 270535Z AUTO 24004KT 10SM CLR 22/20 A2997 RMK AO2 T02220197

10-Day Weather Forecast

Almanac

Astronomia

Jul. 27, 2016 Alba Tramonto
Ora attuale
Crepuscolo civile
Crepuscolo nautico
Crepuscolo astronomico
Luna
Estensione della luce visibile
Lunghezza del giorno
Tomorrow will be .
, % of the Moon is Illuminated

Gli estremi di oggi

State Highs State Lows

Community

WunderPhotos

Upload Photos

1,927,818 foto caricate!

WunderBlog® & News

Nearby

Qualità dell'aria

  Qualità dell'aria Indice AQ Inquinante
Not available.

Profondità neve

Stazione Profondità Altitudine

Attività sismica

Città  Distanza Mag. Data & Ora
Minimo Magnitudo Mostrato è 2.5.

Temperature delle acque costiere

Località Temperatura

Stations

Stazioni meteo nelle vicinanze

Ubicazione della stazione Temp. Raffreddamento del vento Punto di rugiada Umidità Vento Precip. Alt. Aggiornato Tipo
                   

Watches & Warnings

There are currently no watches in effect.